Time;durP1;ratioP1;P1;durP2;ratioP2;P2;SDS_P1;SDS_P2;PMS_P1;PMS_P2;Temp;Humidity;BMP_temperature;BMP_pressure;BME280_temperature;BME280_humidity;BME280_pressure;Samples;Min_cycle;Max_cycle;Signal;HPM_P1;HPM_P2
2021/06/01 00:02:00;;;;;;;2.22;0.77;;;18.70;42.90;;;;;;5072545;28;20032;-73
2021/06/01 00:04:26;;;;;;;1.63;0.85;;;18.60;42.90;;;;;;5072882;28;20029;-73
2021/06/01 00:06:52;;;;;;;0.70;0.70;;;18.60;43.00;;;;;;5074133;28;20028;-73
2021/06/01 00:09:20;;;;;;;0.98;0.73;;;18.60;43.00;;;;;;5074127;28;20039;-73
2021/06/01 00:11:47;;;;;;;0.65;0.65;;;18.60;43.00;;;;;;5074070;28;20028;-73
2021/06/01 00:14:14;;;;;;;0.77;0.65;;;18.50;43.00;;;;;;5072447;28;20028;-73
2021/06/01 00:16:40;;;;;;;1.67;0.90;;;18.50;43.10;;;;;;5073843;28;20035;-73
2021/06/01 00:19:07;;;;;;;0.85;0.85;;;18.50;43.10;;;;;;5073899;28;20028;-73
2021/06/01 00:21:35;;;;;;;0.98;0.90;;;18.50;43.10;;;;;;5073705;28;20119;-74
2021/06/01 00:24:01;;;;;;;1.40;0.88;;;18.40;43.10;;;;;;5073704;28;20063;-73
2021/06/01 00:26:27;;;;;;;1.33;0.80;;;18.30;43.10;;;;;;5073755;28;20028;-73
2021/06/01 00:32:15;;;;;;;2.13;1.05;;;18.30;43.20;;;;;;5073527;28;20110;-73
2021/06/01 00:34:41;;;;;;;1.20;0.95;;;18.20;43.30;;;;;;5073673;28;20389;-73
2021/06/01 00:37:06;;;;;;;0.80;0.70;;;18.20;43.40;;;;;;5072173;28;20023;-73
2021/06/01 00:39:32;;;;;;;1.48;0.80;;;18.20;43.40;;;;;;5072002;28;20539;-73
2021/06/01 00:41:58;;;;;;;2.15;0.98;;;18.10;43.40;;;;;;5073299;28;20550;-73
2021/06/01 00:44:23;;;;;;;1.02;0.80;;;18.10;43.50;;;;;;5071453;28;20047;-73
2021/06/01 00:46:49;;;;;;;0.73;0.73;;;18.10;43.60;;;;;;5073144;28;20043;-73
2021/06/01 00:49:15;;;;;;;1.13;0.80;;;18.10;43.60;;;;;;5073172;28;20028;-73
2021/06/01 00:51:40;;;;;;;0.90;0.80;;;18.10;43.70;;;;;;5073052;28;20487;-73
2021/06/01 00:54:06;;;;;;;1.08;0.98;;;18.10;43.70;;;;;;5073082;28;20024;-73
2021/06/01 00:56:33;;;;;;;3.10;1.00;;;18.00;43.70;;;;;;5073169;28;20024;-73
2021/06/01 00:58:59;;;;;;;2.25;0.90;;;18.00;43.70;;;;;;5073017;28;20029;-73
2021/06/01 01:01:25;;;;;;;0.70;0.70;;;18.00;43.90;;;;;;5071661;28;20468;-73
2021/06/01 01:03:52;;;;;;;0.85;0.70;;;18.00;43.90;;;;;;5073179;28;20048;-73
2021/06/01 01:07:13;;;;;;;1.58;0.80;;;18.00;44.00;;;;;;5072858;28;20025;-73
2021/06/01 01:09:21;;;;;;;1.05;0.90;;;17.90;44.00;;;;;;5070622;28;20036;-73
2021/06/01 01:12:05;;;;;;;1.00;0.85;;;17.90;44.10;;;;;;5071630;28;20545;-73
2021/06/01 01:14:33;;;;;;;;;;;17.90;44.20;;;;;;5072326;28;20017;-73
2021/06/01 01:17:22;;;;;;;0.80;0.70;;;17.80;44.20;;;;;;5072907;28;19908;-73
2021/06/01 01:20:09;;;;;;;0.60;0.60;;;17.80;44.40;;;;;;5071312;28;20060;-74
2021/06/01 01:22:39;;;;;;;2.05;1.00;;;17.70;44.30;;;;;;5072656;28;20064;-73
2021/06/01 01:25:37;;;;;;;1.02;0.80;;;17.70;44.50;;;;;;5072702;28;20103;-73
2021/06/01 01:28:26;;;;;;;1.08;0.95;;;17.70;44.60;;;;;;5071488;28;20476;-73
2021/06/01 01:30:56;;;;;;;1.05;0.70;;;17.60;44.70;;;;;;5071256;28;20028;-73
2021/06/01 01:33:30;;;;;;;2.70;0.77;;;17.60;44.80;;;;;;5072497;28;20035;-73
2021/06/01 01:36:00;;;;;;;1.80;1.20;;;17.50;44.90;;;;;;5071472;28;20090;-73
2021/06/01 01:38:27;;;;;;;0.85;0.80;;;17.50;45.00;;;;;;5071283;28;20029;-73
2021/06/01 01:40:57;;;;;;;0.80;0.80;;;17.50;45.10;;;;;;5072534;28;20051;-73
2021/06/01 01:43:29;;;;;;;1.15;1.00;;;17.50;45.20;;;;;;5072616;28;20499;-73
2021/06/01 01:49:00;;;;;;;2.78;1.05;;;17.40;45.40;;;;;;5052339;28;20056;-74
2021/06/01 01:51:44;;;;;;;0.70;0.68;;;17.40;45.50;;;;;;5034790;28;20021;-73
2021/06/01 01:54:24;;;;;;;1.77;1.13;;;17.30;45.60;;;;;;5034217;28;20079;-73
2021/06/01 01:56:56;;;;;;;1.52;1.15;;;17.30;45.70;;;;;;5035493;28;20025;-73
2021/06/01 01:59:26;;;;;;;1.40;1.02;;;17.20;45.80;;;;;;5056382;28;20444;-73
2021/06/01 02:01:53;;;;;;;2.10;1.00;;;17.20;45.90;;;;;;5056205;28;20029;-73
2021/06/01 02:04:23;;;;;;;1.42;0.90;;;17.20;46.10;;;;;;5038360;28;20021;-73
2021/06/01 02:06:49;;;;;;;2.00;1.23;;;17.10;46.20;;;;;;5056251;28;20033;-73
2021/06/01 02:09:15;;;;;;;1.35;1.00;;;17.00;46.20;;;;;;5038110;28;20510;-73
2021/06/01 02:11:41;;;;;;;1.10;1.00;;;17.00;46.30;;;;;;5038092;28;20112;-73
2021/06/01 02:14:07;;;;;;;1.42;1.00;;;16.90;46.40;;;;;;5055915;28;20550;-73
2021/06/01 02:16:39;;;;;;;1.90;1.50;;;16.90;46.50;;;;;;5055991;28;20029;-73
2021/06/01 02:19:07;;;;;;;1.42;1.13;;;16.90;46.70;;;;;;5056170;28;20028;-73
2021/06/01 02:24:14;;;;;;;1.50;1.05;;;16.80;46.90;;;;;;5056308;28;20045;-73
2021/06/01 02:26:55;;;;;;;2.97;1.27;;;16.70;47.00;;;;;;5037823;28;20032;-73
2021/06/01 02:30:00;;;;;;;2.80;1.30;;;16.70;47.80;;;;;;5037935;28;20551;-73
2021/06/01 02:32:49;;;;;;;3.17;1.10;;;16.70;47.30;;;;;;5055659;28;20558;-73
2021/06/01 02:35:19;;;;;;;1.40;1.00;;;16.60;47.30;;;;;;5036946;28;20401;-74
2021/06/01 02:37:47;;;;;;;2.10;1.30;;;16.60;47.40;;;;;;5055657;28;20029;-73
2021/06/01 02:40:16;;;;;;;1.17;1.08;;;16.60;47.50;;;;;;5037702;28;20033;-73
2021/06/01 02:42:43;;;;;;;1.90;1.25;;;16.50;47.60;;;;;;5055622;28;20028;-73
2021/06/01 02:45:11;;;;;;;1.50;1.10;;;16.50;47.60;;;;;;5061971;28;20506;-73
2021/06/01 02:47:37;;;;;;;1.75;1.25;;;16.50;47.70;;;;;;5075687;28;20035;-73
2021/06/01 02:50:09;;;;;;;2.17;1.10;;;16.50;47.90;;;;;;5075377;28;20020;-73
2021/06/01 02:52:37;;;;;;;1.73;1.33;;;16.40;48.00;;;;;;5074009;28;20514;-73
2021/06/01 02:55:08;;;;;;;2.33;1.00;;;16.40;48.10;;;;;;5074078;28;20056;-73
2021/06/01 02:57:34;;;;;;;2.20;1.30;;;16.30;48.20;;;;;;5075306;28;20029;-73
2021/06/01 03:00:00;;;;;;;1.30;1.20;;;16.30;48.20;;;;;;5073991;28;20127;-73
2021/06/01 03:02:29;;;;;;;4.35;1.20;;;16.30;48.30;;;;;;5073876;28;20037;-73
2021/06/01 03:04:55;;;;;;;1.42;1.08;;;16.30;48.50;;;;;;5074177;28;20032;-74
2021/06/01 03:07:21;;;;;;;1.25;1.15;;;16.30;48.50;;;;;;5073623;28;20024;-73
2021/06/01 03:09:48;;;;;;;2.33;1.17;;;16.20;48.60;;;;;;5073858;28;20218;-73
2021/06/01 03:12:36;;;;;;;1.20;1.10;;;16.20;48.70;;;;;;5073860;28;20028;-73
2021/06/01 03:15:03;;;;;;;2.10;1.30;;;16.20;48.70;;;;;;5075083;28;20047;-73
2021/06/01 03:17:29;;;;;;;1.15;1.05;;;16.20;48.80;;;;;;5075059;28;20040;-73
2021/06/01 03:19:54;;;;;;;1.40;1.08;;;16.20;48.90;;;;;;5075014;28;20025;-73
2021/06/01 03:22:20;;;;;;;1.73;1.27;;;16.10;49.00;;;;;;5074881;28;20025;-73
2021/06/01 03:24:46;;;;;;;1.42;1.33;;;16.10;49.10;;;;;;5074999;28;20029;-73
2021/06/01 03:27:13;;;;;;;2.33;1.50;;;16.10;49.10;;;;;;5074791;28;20070;-73
2021/06/01 03:29:38;;;;;;;1.73;1.20;;;16.10;49.30;;;;;;5074818;28;20032;-73
2021/06/01 03:32:05;;;;;;;1.58;1.48;;;16.00;49.30;;;;;;5074673;28;20057;-73
2021/06/01 03:34:31;;;;;;;3.42;1.10;;;16.00;49.50;;;;;;5074583;28;20028;-73
2021/06/01 03:36:56;;;;;;;1.98;1.23;;;16.00;49.60;;;;;;5073314;28;20032;-72
2021/06/01 03:39:22;;;;;;;3.95;1.48;;;15.90;49.60;;;;;;5073127;28;20115;-73
2021/06/01 03:41:48;;;;;;;1.70;1.30;;;15.90;49.60;;;;;;5073204;28;20032;-73
2021/06/01 03:44:15;;;;;;;1.60;1.20;;;15.90;49.70;;;;;;5074170;28;20056;-73
2021/06/01 03:46:40;;;;;;;1.55;1.40;;;15.90;49.70;;;;;;5073485;28;20514;-72
2021/06/01 03:49:06;;;;;;;1.45;1.23;;;15.90;49.90;;;;;;5073054;28;20036;-73
2021/06/01 03:51:32;;;;;;;1.70;1.10;;;15.90;50.00;;;;;;5072825;28;20032;-73
2021/06/01 03:53:57;;;;;;;1.98;1.05;;;15.90;50.00;;;;;;5072922;28;20048;-73
2021/06/01 03:56:23;;;;;;;1.45;1.35;;;15.90;50.00;;;;;;5074077;28;20032;-72
2021/06/01 03:58:49;;;;;;;1.85;1.40;;;15.90;50.10;;;;;;5074064;28;20024;-73
2021/06/01 04:01:15;;;;;;;1.67;1.20;;;15.90;50.10;;;;;;5073768;28;20033;-73
2021/06/01 04:03:41;;;;;;;2.03;1.30;;;15.90;50.10;;;;;;5072590;28;20028;-73
2021/06/01 04:06:11;;;;;;;1.50;1.40;;;15.90;50.20;;;;;;5073892;28;20086;-73
2021/06/01 04:08:38;;;;;;;2.45;1.50;;;16.00;50.30;;;;;;5072554;28;20484;-73
2021/06/01 04:11:04;;;;;;;2.35;1.45;;;16.00;50.30;;;;;;5073875;28;20111;-73
2021/06/01 04:13:29;;;;;;;2.10;1.10;;;16.00;50.30;;;;;;5072574;28;20087;-72
2021/06/01 04:15:55;;;;;;;2.05;1.45;;;16.00;50.40;;;;;;5074164;28;20031;-73
2021/06/01 04:18:20;;;;;;;2.20;1.48;;;16.00;50.50;;;;;;5073736;28;20101;-73
2021/06/01 04:20:47;;;;;;;1.30;1.15;;;16.00;50.50;;;;;;5072026;28;20090;-73
2021/06/01 04:23:12;;;;;;;2.08;1.70;;;16.00;50.50;;;;;;5072476;28;20021;-73
2021/06/01 04:25:38;;;;;;;1.42;1.33;;;16.00;50.60;;;;;;5072595;28;20422;-73
2021/06/01 04:28:05;;;;;;;3.45;1.40;;;16.00;50.60;;;;;;5073567;28;20079;-73
2021/06/01 04:30:31;;;;;;;2.33;1.70;;;16.00;50.60;;;;;;5072342;28;20028;-73
2021/06/01 04:32:57;;;;;;;1.95;1.33;;;16.00;50.70;;;;;;5073623;28;20055;-73
2021/06/01 04:35:22;;;;;;;2.60;1.50;;;16.00;50.70;;;;;;5072254;28;20024;-73
2021/06/01 04:37:49;;;;;;;4.82;1.52;;;16.00;50.80;;;;;;5072078;28;20017;-73
2021/06/01 04:40:15;;;;;;;1.52;1.35;;;16.00;50.80;;;;;;5073406;28;20020;-73
2021/06/01 04:42:42;;;;;;;3.15;1.30;;;16.00;50.90;;;;;;5071864;28;20035;-73
2021/06/01 04:45:09;;;;;;;1.70;1.60;;;16.10;50.90;;;;;;5073060;28;20052;-73
2021/06/01 04:47:35;;;;;;;2.42;1.50;;;16.10;51.00;;;;;;5072056;28;20028;-73
2021/06/01 04:50:01;;;;;;;1.58;1.30;;;16.10;51.00;;;;;;5073119;28;20130;-73
2021/06/01 04:52:27;;;;;;;2.20;1.60;;;16.10;51.00;;;;;;5072864;28;20021;-73
2021/06/01 04:54:53;;;;;;;2.35;1.70;;;16.10;51.00;;;;;;5072463;28;20491;-72
2021/06/01 04:57:18;;;;;;;2.30;1.67;;;16.10;51.00;;;;;;5071473;28;20094;-73
2021/06/01 04:59:44;;;;;;;1.92;1.45;;;16.20;51.10;;;;;;5072986;28;20487;-72
2021/06/01 05:02:10;;;;;;;3.35;1.40;;;16.20;51.00;;;;;;5071398;28;20051;-73
2021/06/01 05:04:35;;;;;;;1.80;1.33;;;16.20;51.00;;;;;;5071615;28;20024;-72
2021/06/01 05:07:01;;;;;;;1.90;1.42;;;16.20;51.10;;;;;;5071519;28;20017;-72
2021/06/01 05:09:27;;;;;;;2.20;1.40;;;16.30;51.10;;;;;;5071468;28;20021;-72
2021/06/01 05:11:53;;;;;;;3.28;1.67;;;16.30;51.20;;;;;;5071396;28;20028;-73
2021/06/01 05:14:19;;;;;;;2.38;1.58;;;16.30;51.20;;;;;;5071506;28;20074;-73
2021/06/01 05:16:45;;;;;;;1.73;1.58;;;16.40;51.20;;;;;;5071638;28;20047;-73
2021/06/01 05:19:11;;;;;;;3.53;1.48;;;16.40;51.20;;;;;;5072786;28;20048;-73
2021/06/01 05:21:37;;;;;;;1.65;1.42;;;16.40;51.20;;;;;;5071612;28;20024;-72
2021/06/01 05:24:03;;;;;;;2.50;1.85;;;16.40;51.20;;;;;;5072663;28;20122;-73
2021/06/01 05:26:29;;;;;;;2.83;1.50;;;16.40;51.20;;;;;;5072704;28;20032;-72
2021/06/01 05:28:55;;;;;;;1.73;1.50;;;16.50;51.30;;;;;;5071210;28;20028;-72
2021/06/01 05:31:26;;;;;;;2.22;1.60;;;16.50;51.30;;;;;;5070155;28;20021;-73
2021/06/01 05:33:58;;;;;;;2.17;1.60;;;16.50;51.30;;;;;;5072485;28;20024;-74
2021/06/01 05:36:25;;;;;;;3.10;1.77;;;16.60;51.30;;;;;;5071075;28;20111;-73
2021/06/01 05:38:51;;;;;;;1.48;1.33;;;16.60;51.30;;;;;;5071100;28;20107;-73
2021/06/01 05:41:17;;;;;;;2.05;1.27;;;16.70;51.40;;;;;;5071115;28;20033;-73
2021/06/01 05:43:43;;;;;;;5.20;1.60;;;16.70;51.40;;;;;;5071166;28;20545;-73
2021/06/01 05:46:09;;;;;;;2.83;1.58;;;16.70;51.40;;;;;;5072506;28;20036;-73
2021/06/01 05:48:35;;;;;;;3.67;1.70;;;16.80;51.40;;;;;;5071242;28;20498;-73
2021/06/01 05:51:01;;;;;;;2.47;1.63;;;16.80;51.40;;;;;;5072744;28;20028;-73
2021/06/01 05:53:27;;;;;;;3.78;1.95;;;16.90;51.40;;;;;;5070870;28;20017;-73
2021/06/01 05:55:53;;;;;;;2.75;1.58;;;16.90;51.30;;;;;;5072400;28;20025;-74
2021/06/01 05:58:21;;;;;;;2.20;1.52;;;17.00;51.30;;;;;;5070930;28;20067;-73
2021/06/01 06:00:46;;;;;;;1.98;1.60;;;17.00;51.30;;;;;;5072262;28;20055;-74
2021/06/01 06:03:14;;;;;;;2.88;1.45;;;17.00;51.20;;;;;;5070980;28;20525;-73
2021/06/01 06:05:40;;;;;;;1.73;1.52;;;17.10;51.30;;;;;;5070984;28;20028;-73
2021/06/01 06:08:16;;;;;;;2.55;1.60;;;17.10;51.20;;;;;;5072260;28;20039;-73
2021/06/01 06:10:43;;;;;;;2.55;1.70;;;17.20;51.30;;;;;;5072172;28;20088;-73
2021/06/01 06:13:09;;;;;;;2.63;1.70;;;17.20;51.20;;;;;;5070901;28;20056;-74
2021/06/01 06:15:36;;;;;;;4.05;1.65;;;17.20;51.20;;;;;;5072194;28;20393;-71
2021/06/01 06:18:19;;;;;;;3.10;1.70;;;17.30;51.20;;;;;;5070859;28;20032;-72
2021/06/01 06:20:45;;;;;;;1.73;1.60;;;17.30;51.20;;;;;;5070932;28;20029;-71
2021/06/01 06:23:12;;;;;;;1.67;1.55;;;17.40;51.10;;;;;;5070839;28;20034;-73
2021/06/01 06:25:38;;;;;;;1.85;1.55;;;17.50;51.10;;;;;;5072127;28;20028;-73
2021/06/01 06:28:04;;;;;;;2.88;1.70;;;17.50;51.10;;;;;;5072092;28;20427;-73
2021/06/01 06:30:29;;;;;;;1.95;1.70;;;17.60;51.10;;;;;;5070911;28;20025;-73
2021/06/01 06:32:55;;;;;;;2.13;1.75;;;17.60;51.10;;;;;;5072019;28;20035;-73
2021/06/01 06:35:21;;;;;;;1.75;1.65;;;17.70;51.00;;;;;;5070757;28;20373;-73
2021/06/01 06:37:47;;;;;;;2.50;1.60;;;17.70;51.00;;;;;;5072008;28;20017;-72
2021/06/01 06:40:14;;;;;;;1.92;1.60;;;17.80;51.10;;;;;;5070976;28;20115;-73
2021/06/01 06:42:40;;;;;;;2.30;1.73;;;17.80;51.10;;;;;;5071364;28;20510;-73
2021/06/01 06:45:08;;;;;;;2.75;1.83;;;17.90;51.10;;;;;;5075614;28;20407;-73
2021/06/01 06:50:25;;;;;;;4.00;2.05;;;18.00;50.90;;;;;;5075553;28;20399;-74
2021/06/01 06:52:51;;;;;;;2.55;2.00;;;18.00;50.90;;;;;;5074257;28;20365;-76
2021/06/01 06:55:17;;;;;;;3.28;2.00;;;18.10;51.00;;;;;;5074348;28;20031;-75
2021/06/01 06:57:43;;;;;;;2.63;1.88;;;18.10;51.00;;;;;;5074131;28;20021;-76
2021/06/01 07:00:18;;;;;;;5.80;2.15;;;18.10;51.00;;;;;;5074119;28;20035;-73
2021/06/01 07:02:44;;;;;;;4.13;2.10;;;18.20;51.10;;;;;;5074272;28;20111;-74
2021/06/01 07:05:12;;;;;;;2.35;2.05;;;18.20;51.00;;;;;;5073974;28;20036;-75
2021/06/01 07:07:38;;;;;;;3.70;2.10;;;18.20;51.10;;;;;;5075148;28;20032;-75
2021/06/01 07:10:06;;;;;;;2.25;1.90;;;18.30;51.10;;;;;;5075164;28;20033;-75
2021/06/01 07:12:32;;;;;;;2.50;1.95;;;18.30;51.70;;;;;;5075131;28;20033;-75
2021/06/01 07:15:10;;;;;;;4.47;2.00;;;18.40;51.00;;;;;;5073916;28;20093;-75
2021/06/01 07:17:36;;;;;;;3.42;2.10;;;18.50;51.10;;;;;;5073676;28;20020;-75
2021/06/01 07:20:02;;;;;;;4.32;2.17;;;18.50;51.10;;;;;;5073707;28;20021;-75
2021/06/01 07:22:28;;;;;;;3.10;2.30;;;18.50;51.10;;;;;;5073776;28;20032;-75
2021/06/01 07:24:53;;;;;;;3.13;2.15;;;18.50;51.20;;;;;;5073692;28;20040;-75
2021/06/01 07:27:19;;;;;;;3.33;2.20;;;18.60;51.10;;;;;;5075008;28;20029;-75
2021/06/01 07:29:45;;;;;;;4.25;2.33;;;18.60;51.10;;;;;;5073657;28;20020;-75
2021/06/01 07:32:10;;;;;;;3.17;2.08;;;18.60;51.20;;;;;;5074876;28;20025;-75
2021/06/01 07:34:36;;;;;;;3.58;2.20;;;18.70;51.40;;;;;;5074861;28;20032;-75
2021/06/01 07:37:02;;;;;;;2.78;2.10;;;18.70;51.40;;;;;;5073748;28;20021;-75
2021/06/01 07:39:28;;;;;;;3.88;2.47;;;18.80;51.50;;;;;;5074724;28;20052;-75
2021/06/01 07:41:53;;;;;;;2.30;2.10;;;18.90;51.50;;;;;;5073296;28;20025;-75
2021/06/01 07:44:19;;;;;;;3.25;2.45;;;19.00;51.50;;;;;;5074368;28;20052;-75
2021/06/01 07:46:45;;;;;;;2.63;2.17;;;19.00;51.60;;;;;;5074734;28;20059;-74
2021/06/01 07:49:10;;;;;;;4.97;2.20;;;19.10;51.50;;;;;;5073219;28;20056;-75
2021/06/01 07:51:37;;;;;;;2.85;2.38;;;19.10;51.50;;;;;;5074813;28;20033;-74
2021/06/01 07:54:04;;;;;;;3.05;2.10;;;19.20;51.60;;;;;;5073607;28;20017;-74
2021/06/01 07:56:34;;;;;;;3.00;2.28;;;19.20;51.60;;;;;;5072917;28;20115;-74
2021/06/01 07:59:00;;;;;;;2.10;1.90;;;19.30;51.70;;;;;;5073095;28;20031;-75
2021/06/01 08:01:26;;;;;;;2.63;2.33;;;19.40;51.60;;;;;;5074052;28;20060;-75
2021/06/01 08:03:52;;;;;;;2.40;2.08;;;19.50;51.60;;;;;;5073232;28;20495;-74
2021/06/01 08:06:17;;;;;;;3.72;2.33;;;19.60;51.50;;;;;;5074256;28;20507;-74
2021/06/01 08:08:43;;;;;;;2.67;1.83;;;19.70;51.50;;;;;;5072814;28;20024;-74
2021/06/01 08:11:09;;;;;;;1.95;1.85;;;19.70;51.40;;;;;;5074073;28;20033;-74
2021/06/01 08:13:35;;;;;;;3.47;2.65;;;19.80;51.50;;;;;;5072792;28;20111;-74
2021/06/01 08:16:02;;;;;;;3.20;2.20;;;19.90;51.50;;;;;;5072725;28;20028;-75
2021/06/01 08:18:32;;;;;;;3.70;2.20;;;19.90;51.40;;;;;;5074450;28;20040;-76
2021/06/01 08:23:26;;;;;;;3.10;1.88;;;20.10;51.40;;;;;;5074025;28;20043;-76
2021/06/01 08:25:52;;;;;;;2.95;2.20;;;20.10;52.00;;;;;;5072595;28;20036;-75
2021/06/01 08:28:18;;;;;;;2.53;1.92;;;20.20;51.30;;;;;;5074026;28;20483;-74
2021/06/01 08:30:43;;;;;;;3.38;2.30;;;20.30;51.30;;;;;;5073721;28;20024;-74
2021/06/01 08:33:09;;;;;;;4.63;2.20;;;20.40;51.20;;;;;;5072466;28;20027;-76
2021/06/01 08:35:35;;;;;;;2.65;2.35;;;20.40;51.00;;;;;;5073699;28;20043;-75
2021/06/01 08:38:01;;;;;;;3.70;2.28;;;20.40;50.90;;;;;;5072244;28;20442;-74
2021/06/01 08:40:27;;;;;;;3.15;2.35;;;20.50;50.90;;;;;;5073579;28;20527;-75
2021/06/01 08:42:53;;;;;;;3.67;2.13;;;20.50;50.90;;;;;;5072218;28;20032;-75
2021/06/01 08:45:20;;;;;;;2.78;2.13;;;20.50;50.90;;;;;;5073295;28;20041;-75
2021/06/01 08:47:47;;;;;;;4.32;2.42;;;20.60;50.80;;;;;;5072542;28;20032;-75
2021/06/01 08:50:13;;;;;;;2.03;1.90;;;20.60;50.80;;;;;;5073822;28;20028;-75
2021/06/01 08:52:40;;;;;;;2.22;2.03;;;20.80;50.80;;;;;;5073644;28;20035;-75
2021/06/01 08:55:09;;;;;;;4.78;2.60;;;20.80;50.70;;;;;;5073233;28;20043;-75
2021/06/01 08:57:36;;;;;;;3.33;1.75;;;20.90;50.70;;;;;;5071864;28;20115;-76
2021/06/01 09:00:04;;;;;;;2.58;2.25;;;21.00;50.60;;;;;;5071941;28;20423;-75
2021/06/01 09:02:29;;;;;;;2.42;2.20;;;21.00;50.40;;;;;;5073272;28;20531;-75
2021/06/01 09:05:03;;;;;;;2.92;2.13;;;21.00;50.20;;;;;;5073163;28;20056;-75
2021/06/01 09:10:41;;;;;;;3.38;2.50;;;21.10;50.20;;;;;;5073358;28;20518;-74
2021/06/01 09:13:32;;;;;;;3.17;2.05;;;21.20;50.10;;;;;;5071875;28;20028;-75
2021/06/01 09:21:35;;;;;;;3.22;2.10;;;21.30;49.70;;;;;;5073383;28;20075;-76
2021/06/01 09:24:03;;;;;;;3.08;2.17;;;21.40;49.60;;;;;;5071962;28;20072;-75
2021/06/01 09:27:00;;;;;;;2.85;1.90;;;21.50;49.60;;;;;;5071517;28;20029;-75
2021/06/01 09:29:27;;;;;;;5.47;2.13;;;21.60;49.40;;;;;;5071479;28;20024;-76
2021/06/01 09:32:11;;;;;;;2.83;1.98;;;21.60;49.10;;;;;;5072907;28;20028;-75
2021/06/01 09:34:44;;;;;;;;;;;21.70;48.70;;;;;;5073927;28;20024;-75
2021/06/01 09:37:22;;;;;;;3.75;2.00;;;21.70;48.90;;;;;;5072738;28;19919;-75
2021/06/01 09:40:13;;;;;;;2.75;1.80;;;21.70;48.90;;;;;;5071749;28;20032;-76
2021/06/01 09:42:41;;;;;;;5.97;2.20;;;21.70;48.90;;;;;;5073846;28;20056;-76
2021/06/01 09:45:16;;;;;;;3.33;2.13;;;21.80;48.70;;;;;;5071804;28;20156;-75
2021/06/01 09:47:57;;;;;;;4.55;1.83;;;21.90;48.50;;;;;;5072016;28;20040;-75
2021/06/01 09:53:03;;;;;;;2.10;1.90;;;22.00;48.40;;;;;;5073476;28;20045;-75
2021/06/01 09:57:58;;;;;;;1.90;1.63;;;22.10;47.80;;;;;;5072229;28;20036;-75
2021/06/01 10:00:26;;;;;;;2.85;1.80;;;22.20;47.50;;;;;;5072595;28;20024;-74
2021/06/01 10:03:03;;;;;;;2.65;1.60;;;22.30;47.10;;;;;;5071743;28;20029;-75
2021/06/01 10:05:34;;;;;;;1.88;1.42;;;22.30;46.50;;;;;;5072927;28;20341;-74
2021/06/01 10:08:25;;;;;;;2.42;1.55;;;22.50;46.40;;;;;;5071132;28;20029;-74
2021/06/01 10:10:57;;;;;;;2.38;1.75;;;22.60;46.00;;;;;;5072403;28;20020;-73
2021/06/01 10:13:24;;;;;;;2.30;1.67;;;22.70;46.10;;;;;;5071997;28;20109;-75
2021/06/01 10:15:52;;;;;;;1.98;1.40;;;22.70;45.80;;;;;;5071839;28;20024;-74
2021/06/01 10:18:19;;;;;;;5.15;1.42;;;22.80;45.70;;;;;;5073825;28;20388;-74
2021/06/01 10:20:47;;;;;;;1.58;1.42;;;22.80;45.40;;;;;;5076230;28;20013;-74
2021/06/01 10:23:14;;;;;;;3.05;1.70;;;22.90;45.30;;;;;;5076090;28;20032;-74
2021/06/01 10:25:40;;;;;;;1.67;1.33;;;23.00;44.50;;;;;;5076125;28;20025;-74
2021/06/01 10:28:08;;;;;;;2.40;1.50;;;23.10;44.90;;;;;;5074915;28;20039;-74
2021/06/01 10:30:43;;;;;;;1.63;1.50;;;23.10;44.00;;;;;;5075786;28;20020;-74
2021/06/01 10:33:14;;;;;;;1.60;1.40;;;23.10;43.90;;;;;;5074428;28;20029;-74
2021/06/01 10:35:50;;;;;;;2.80;1.70;;;23.20;43.70;;;;;;5076148;28;20056;-75
2021/06/01 10:50:21;;;;;;;1.70;1.30;;;23.60;42.70;;;;;;5075946;28;20099;-74
2021/06/01 10:53:09;;;;;;;2.88;1.70;;;23.60;42.40;;;;;;5075531;28;20055;-75
2021/06/01 10:56:02;;;;;;;1.83;1.65;;;23.60;41.70;;;;;;5075888;28;20021;-74
2021/06/01 10:58:29;;;;;;;2.75;1.30;;;23.60;41.70;;;;;;5064368;28;20036;-74
2021/06/01 11:04:22;;;;;;;4.20;1.58;;;23.60;40.60;;;;;;5071266;28;20040;-74
2021/06/01 11:06:52;;;;;;;1.30;1.20;;;23.60;40.20;;;;;;5074011;28;20020;-74
2021/06/01 11:09:33;;;;;;;1.48;1.38;;;23.60;40.30;;;;;;5075311;28;20518;-74
2021/06/01 11:12:16;;;;;;;2.20;1.20;;;23.60;40.40;;;;;;5074050;28;20497;-74
2021/06/01 11:14:42;;;;;;;3.28;1.20;;;23.70;40.60;;;;;;5073924;28;20074;-75
2021/06/01 11:17:08;;;;;;;1.67;1.50;;;23.80;41.00;;;;;;5073763;28;20024;-75
2021/06/01 11:23:22;;;;;;;1.60;1.50;;;24.00;41.10;;;;;;5075370;28;20107;-74
2021/06/01 11:33:53;;;;;;;2.17;1.33;;;24.30;40.50;;;;;;5075053;28;20036;-74
2021/06/01 11:36:20;;;;;;;1.65;1.27;;;24.40;40.10;;;;;;5074787;28;20021;-74
2021/06/01 11:43:47;;;;;;;2.25;1.02;;;24.70;39.30;;;;;;5074735;28;20037;-73
2021/06/01 11:51:22;;;;;;;1.15;1.05;;;24.90;38.60;;;;;;5074663;28;20028;-73
2021/06/01 11:53:48;;;;;;;2.17;1.50;;;24.90;38.40;;;;;;5073233;28;20029;-74
2021/06/01 11:56:18;;;;;;;2.13;1.17;;;25.00;38.30;;;;;;5074423;28;20028;-74
2021/06/01 12:05:32;;;;;;;1.20;1.10;;;25.20;38.10;;;;;;5074515;28;20086;-74
2021/06/01 12:13:33;;;;;;;1.30;1.20;;;25.40;38.30;;;;;;5074561;28;20085;-73
2021/06/01 12:18:53;;;;;;;2.30;1.10;;;25.60;38.00;;;;;;5074312;28;20040;-73
2021/06/01 12:21:35;;;;;;;1.20;1.00;;;25.70;37.70;;;;;;5073886;28;20159;-73
2021/06/01 12:24:05;;;;;;;1.85;1.42;;;25.70;37.60;;;;;;5072478;28;20503;-73
2021/06/01 12:32:08;;;;;;;1.25;1.15;;;26.00;38.00;;;;;;5073750;28;20463;-73
2021/06/01 12:43:31;;;;;;;2.15;1.25;;;26.10;37.10;;;;;;5073471;28;20039;-73
2021/06/01 13:19:35;;;;;;;2.63;1.40;;;27.10;36.50;;;;;;5073325;28;20036;-74
2021/06/01 13:37:11;;;;;;;1.40;1.15;;;27.50;36.20;;;;;;5073056;28;20482;-74
2021/06/01 13:39:52;;;;;;;2.00;1.40;;;27.60;36.10;;;;;;5072769;28;20472;-74
2021/06/01 13:48:05;;;;;;;1.67;1.33;;;27.60;35.50;;;;;;5072687;28;20091;-73
2021/06/01 13:55:55;;;;;;;1.40;1.30;;;27.80;35.60;;;;;;5077171;28;20040;-75
2021/06/01 13:58:40;;;;;;;1.33;1.23;;;27.90;35.40;;;;;;5075369;28;20028;-73
2021/06/01 14:01:21;;;;;;;1.38;1.27;;;27.90;35.60;;;;;;5076615;28;20025;-73
2021/06/01 14:09:53;;;;;;;1.35;1.10;;;28.20;35.30;;;;;;5076498;28;20039;-74
2021/06/01 14:15:36;;;;;;;1.13;1.00;;;28.20;35.00;;;;;;5076613;28;20090;-74
2021/06/01 15:29:14;;;;;;;1.35;1.25;;;29.10;32.70;;;;;;5075149;28;20332;-74
2021/06/01 15:31:50;;;;;;;1.38;1.27;;;29.10;32.70;;;;;;5074770;28;20498;-75
2021/06/01 16:21:25;;;;;;;1.30;1.20;;;31.00;32.20;;;;;;5073702;28;20055;-74
2021/06/01 16:30:04;;;;;;;3.90;2.90;;;31.10;31.80;;;;;;5073848;28;20031;-74
2021/06/01 16:32:13;;;;;;;8.15;4.45;;;31.10;31.80;;;;;;5069229;28;20380;-74
2021/06/01 17:11:35;;;;;;;1.67;1.50;;;31.10;30.20;;;;;;4983255;28;20109;-74
2021/06/01 17:14:03;;;;;;;1.40;1.30;;;31.20;30.00;;;;;;4991702;28;20037;-75
2021/06/01 17:16:53;;;;;;;1.40;1.30;;;31.10;29.90;;;;;;4991717;28;20109;-74
2021/06/01 17:35:32;;;;;;;2.63;1.15;;;31.00;30.20;;;;;;4991691;28;20041;-74
2021/06/01 17:38:01;;;;;;;2.58;1.00;;;31.00;30.10;;;;;;4975043;28;20030;-74
2021/06/01 17:40:27;;;;;;;0.82;0.80;;;31.00;30.00;;;;;;4991564;28;20481;-74
2021/06/01 17:42:59;;;;;;;2.80;1.25;;;31.00;30.00;;;;;;5052837;28;20087;-74
2021/06/01 17:45:25;;;;;;;2.88;1.00;;;31.00;29.80;;;;;;5072572;28;20045;-74
2021/06/01 17:48:02;;;;;;;1.48;1.10;;;31.00;29.90;;;;;;5071288;28;20380;-74
2021/06/01 17:53:50;;;;;;;4.60;1.02;;;31.00;29.80;;;;;;5073018;28;20047;-74
2021/06/01 17:56:19;;;;;;;1.20;1.10;;;31.00;29.90;;;;;;5071179;28;20037;-74
2021/06/01 17:58:45;;;;;;;1.23;1.05;;;31.00;29.70;;;;;;5071389;28;20024;-73
2021/06/01 18:01:13;;;;;;;2.03;1.05;;;31.00;29.70;;;;;;5071111;28;20033;-80
2021/06/01 18:03:46;;;;;;;1.73;1.15;;;31.00;29.70;;;;;;5071207;28;20032;-76
2021/06/01 18:06:13;;;;;;;0.95;0.90;;;31.00;29.70;;;;;;5071034;28;20033;-75
2021/06/01 18:08:56;;;;;;;1.10;1.00;;;31.00;29.70;;;;;;5072407;28;20024;-75
2021/06/01 18:29:27;;;;;;;1.95;1.10;;;31.10;29.90;;;;;;5072229;28;20032;-75
2021/06/01 18:35:40;;;;;;;1.38;1.27;;;30.40;30.70;;;;;;5072128;28;20046;-75
2021/06/01 19:21:56;;;;;;;1.35;1.25;;;26.50;35.10;;;;;;5075372;28;20063;-73
2021/06/01 19:24:31;;;;;;;1.20;1.10;;;26.40;35.30;;;;;;5074797;28;20028;-75
2021/06/01 19:51:10;;;;;;;1.83;1.60;;;25.50;37.00;;;;;;5073316;28;20494;-77
2021/06/01 19:53:39;;;;;;;2.60;1.80;;;25.40;37.10;;;;;;5073200;28;20017;-78
2021/06/01 19:59:45;;;;;;;1.50;1.40;;;25.30;37.40;;;;;;5074885;28;20071;-77
2021/06/01 20:02:25;;;;;;;3.22;1.85;;;25.20;37.40;;;;;;5072934;28;20029;-77
2021/06/01 20:04:52;;;;;;;1.60;1.50;;;25.10;37.50;;;;;;5072931;28;20040;-77
2021/06/01 20:07:20;;;;;;;3.88;1.27;;;25.10;37.70;;;;;;5073256;28;20060;-77
2021/06/01 20:09:46;;;;;;;1.65;1.27;;;25.00;37.80;;;;;;5074112;28;20029;-77
2021/06/01 20:12:13;;;;;;;1.33;1.23;;;24.90;37.80;;;;;;5072455;28;20032;-77
2021/06/01 20:14:39;;;;;;;1.38;1.27;;;24.90;37.90;;;;;;5073794;28;20083;-77
2021/06/01 20:17:10;;;;;;;2.50;1.40;;;24.80;37.90;;;;;;5073827;28;20025;-78